sensor_id;sensor_type;location;lat;lon;timestamp;P1;durP1;ratioP1;P2;durP2;ratioP2
20629;SDS011;17386;43.846;25.950;2023-04-26T00:01:27;8.43;;;5.55;;
20629;SDS011;17386;43.846;25.950;2023-04-26T00:03:53;9.30;;;5.40;;
20629;SDS011;17386;43.846;25.950;2023-04-26T00:06:20;8.07;;;5.40;;
20629;SDS011;17386;43.846;25.950;2023-04-26T00:08:45;10.32;;;5.60;;
20629;SDS011;17386;43.846;25.950;2023-04-26T00:11:11;11.15;;;5.88;;
20629;SDS011;17386;43.846;25.950;2023-04-26T00:13:36;7.80;;;5.22;;
20629;SDS011;17386;43.846;25.950;2023-04-26T00:16:02;8.73;;;5.45;;
20629;SDS011;17386;43.846;25.950;2023-04-26T00:18:28;10.00;;;5.35;;
20629;SDS011;17386;43.846;25.950;2023-04-26T00:20:55;9.75;;;5.53;;
20629;SDS011;17386;43.846;25.950;2023-04-26T00:23:21;9.45;;;5.35;;
20629;SDS011;17386;43.846;25.950;2023-04-26T00:25:46;10.80;;;5.18;;
20629;SDS011;17386;43.846;25.950;2023-04-26T00:28:11;7.93;;;4.82;;
20629;SDS011;17386;43.846;25.950;2023-04-26T00:30:37;10.05;;;5.90;;
20629;SDS011;17386;43.846;25.950;2023-04-26T00:33:06;9.52;;;5.40;;
20629;SDS011;17386;43.846;25.950;2023-04-26T00:35:31;9.75;;;5.53;;
20629;SDS011;17386;43.846;25.950;2023-04-26T00:37:56;8.57;;;5.03;;
20629;SDS011;17386;43.846;25.950;2023-04-26T00:40:22;9.05;;;5.25;;
20629;SDS011;17386;43.846;25.950;2023-04-26T00:42:47;8.68;;;5.13;;
20629;SDS011;17386;43.846;25.950;2023-04-26T00:45:13;8.52;;;5.35;;
20629;SDS011;17386;43.846;25.950;2023-04-26T00:47:38;13.02;;;5.32;;
20629;SDS011;17386;43.846;25.950;2023-04-26T00:50:04;9.15;;;5.25;;
20629;SDS011;17386;43.846;25.950;2023-04-26T00:52:32;8.52;;;5.35;;
20629;SDS011;17386;43.846;25.950;2023-04-26T00:54:57;9.55;;;5.47;;
20629;SDS011;17386;43.846;25.950;2023-04-26T00:57:23;7.47;;;4.88;;
20629;SDS011;17386;43.846;25.950;2023-04-26T00:59:49;8.82;;;5.03;;
20629;SDS011;17386;43.846;25.950;2023-04-26T01:02:14;9.55;;;5.15;;
20629;SDS011;17386;43.846;25.950;2023-04-26T01:04:40;10.20;;;5.30;;
20629;SDS011;17386;43.846;25.950;2023-04-26T01:07:06;9.02;;;5.15;;
20629;SDS011;17386;43.846;25.950;2023-04-26T01:09:32;7.95;;;4.93;;
20629;SDS011;17386;43.846;25.950;2023-04-26T01:11:57;9.85;;;5.22;;
20629;SDS011;17386;43.846;25.950;2023-04-26T01:14:24;7.82;;;4.97;;
20629;SDS011;17386;43.846;25.950;2023-04-26T01:16:50;9.32;;;5.35;;
20629;SDS011;17386;43.846;25.950;2023-04-26T01:19:16;10.25;;;5.55;;
20629;SDS011;17386;43.846;25.950;2023-04-26T01:21:42;11.70;;;5.45;;
20629;SDS011;17386;43.846;25.950;2023-04-26T01:24:08;8.98;;;5.15;;
20629;SDS011;17386;43.846;25.950;2023-04-26T01:26:35;11.75;;;5.85;;
20629;SDS011;17386;43.846;25.950;2023-04-26T01:29:03;8.98;;;5.40;;
20629;SDS011;17386;43.846;25.950;2023-04-26T01:31:37;9.52;;;5.53;;
20629;SDS011;17386;43.846;25.950;2023-04-26T01:34:03;11.30;;;6.07;;
20629;SDS011;17386;43.846;25.950;2023-04-26T01:36:28;10.10;;;5.72;;
20629;SDS011;17386;43.846;25.950;2023-04-26T01:38:53;10.75;;;5.68;;
20629;SDS011;17386;43.846;25.950;2023-04-26T01:41:19;10.25;;;5.63;;
20629;SDS011;17386;43.846;25.950;2023-04-26T01:43:44;10.48;;;6.18;;
20629;SDS011;17386;43.846;25.950;2023-04-26T01:46:10;10.63;;;6.22;;
20629;SDS011;17386;43.846;25.950;2023-04-26T01:48:35;10.88;;;6.05;;
20629;SDS011;17386;43.846;25.950;2023-04-26T01:51:00;14.00;;;6.05;;
20629;SDS011;17386;43.846;25.950;2023-04-26T01:53:26;10.07;;;5.65;;
20629;SDS011;17386;43.846;25.950;2023-04-26T01:55:51;11.63;;;5.40;;
20629;SDS011;17386;43.846;25.950;2023-04-26T01:58:17;14.10;;;5.63;;
20629;SDS011;17386;43.846;25.950;2023-04-26T02:00:42;10.18;;;5.93;;
20629;SDS011;17386;43.846;25.950;2023-04-26T02:03:07;8.95;;;5.72;;
20629;SDS011;17386;43.846;25.950;2023-04-26T02:05:33;10.43;;;6.00;;
20629;SDS011;17386;43.846;25.950;2023-04-26T02:07:58;9.63;;;5.70;;
20629;SDS011;17386;43.846;25.950;2023-04-26T02:10:24;9.00;;;5.93;;
20629;SDS011;17386;43.846;25.950;2023-04-26T02:12:49;9.98;;;5.97;;
20629;SDS011;17386;43.846;25.950;2023-04-26T02:15:14;12.02;;;5.93;;
20629;SDS011;17386;43.846;25.950;2023-04-26T02:17:41;9.98;;;5.65;;
20629;SDS011;17386;43.846;25.950;2023-04-26T02:20:06;8.43;;;5.35;;
20629;SDS011;17386;43.846;25.950;2023-04-26T02:22:35;8.93;;;5.38;;
20629;SDS011;17386;43.846;25.950;2023-04-26T02:25:00;10.02;;;5.80;;
20629;SDS011;17386;43.846;25.950;2023-04-26T02:27:26;11.55;;;5.43;;
20629;SDS011;17386;43.846;25.950;2023-04-26T02:29:51;7.97;;;4.82;;
20629;SDS011;17386;43.846;25.950;2023-04-26T02:32:17;9.52;;;5.22;;
20629;SDS011;17386;43.846;25.950;2023-04-26T02:34:42;8.07;;;5.20;;
20629;SDS011;17386;43.846;25.950;2023-04-26T02:37:08;7.40;;;4.57;;
20629;SDS011;17386;43.846;25.950;2023-04-26T02:39:34;9.55;;;5.10;;
20629;SDS011;17386;43.846;25.950;2023-04-26T02:41:59;8.32;;;4.65;;
20629;SDS011;17386;43.846;25.950;2023-04-26T02:44:27;9.43;;;5.40;;
20629;SDS011;17386;43.846;25.950;2023-04-26T02:46:53;8.88;;;4.78;;
20629;SDS011;17386;43.846;25.950;2023-04-26T02:49:19;7.85;;;5.13;;
20629;SDS011;17386;43.846;25.950;2023-04-26T02:51:44;9.32;;;5.30;;
20629;SDS011;17386;43.846;25.950;2023-04-26T02:54:09;9.18;;;4.90;;
20629;SDS011;17386;43.846;25.950;2023-04-26T02:56:35;9.10;;;4.50;;
20629;SDS011;17386;43.846;25.950;2023-04-26T02:59:00;9.77;;;5.10;;
20629;SDS011;17386;43.846;25.950;2023-04-26T03:01:26;8.10;;;4.57;;
20629;SDS011;17386;43.846;25.950;2023-04-26T03:03:51;8.30;;;5.18;;
20629;SDS011;17386;43.846;25.950;2023-04-26T03:06:18;8.75;;;4.40;;
20629;SDS011;17386;43.846;25.950;2023-04-26T03:08:43;8.07;;;4.97;;
20629;SDS011;17386;43.846;25.950;2023-04-26T03:11:09;8.35;;;4.53;;
20629;SDS011;17386;43.846;25.950;2023-04-26T03:13:34;9.63;;;4.88;;
20629;SDS011;17386;43.846;25.950;2023-04-26T03:16:00;9.60;;;6.10;;
20629;SDS011;17386;43.846;25.950;2023-04-26T03:18:25;10.50;;;6.03;;
20629;SDS011;17386;43.846;25.950;2023-04-26T03:20:51;9.32;;;5.22;;
20629;SDS011;17386;43.846;25.950;2023-04-26T03:23:16;12.27;;;6.07;;
20629;SDS011;17386;43.846;25.950;2023-04-26T03:25:42;12.98;;;5.63;;
20629;SDS011;17386;43.846;25.950;2023-04-26T03:28:07;8.57;;;4.80;;
20629;SDS011;17386;43.846;25.950;2023-04-26T03:30:33;8.70;;;5.38;;
20629;SDS011;17386;43.846;25.950;2023-04-26T03:32:58;10.02;;;5.38;;
20629;SDS011;17386;43.846;25.950;2023-04-26T03:35:24;9.52;;;5.32;;
20629;SDS011;17386;43.846;25.950;2023-04-26T03:37:49;9.50;;;5.10;;
20629;SDS011;17386;43.846;25.950;2023-04-26T03:40:15;9.63;;;5.43;;
20629;SDS011;17386;43.846;25.950;2023-04-26T03:42:41;8.95;;;5.40;;
20629;SDS011;17386;43.846;25.950;2023-04-26T03:45:06;8.70;;;5.57;;
20629;SDS011;17386;43.846;25.950;2023-04-26T03:47:32;11.13;;;5.47;;
20629;SDS011;17386;43.846;25.950;2023-04-26T03:49:58;9.32;;;5.25;;
20629;SDS011;17386;43.846;25.950;2023-04-26T03:52:23;9.60;;;5.72;;
20629;SDS011;17386;43.846;25.950;2023-04-26T03:54:49;10.25;;;5.53;;
20629;SDS011;17386;43.846;25.950;2023-04-26T03:57:14;9.93;;;5.20;;
20629;SDS011;17386;43.846;25.950;2023-04-26T03:59:40;9.57;;;5.75;;
20629;SDS011;17386;43.846;25.950;2023-04-26T04:02:05;8.18;;;4.75;;
20629;SDS011;17386;43.846;25.950;2023-04-26T04:04:31;10.02;;;5.10;;
20629;SDS011;17386;43.846;25.950;2023-04-26T04:06:57;9.05;;;4.88;;
20629;SDS011;17386;43.846;25.950;2023-04-26T04:09:23;7.88;;;4.82;;
20629;SDS011;17386;43.846;25.950;2023-04-26T04:11:49;7.65;;;4.25;;
20629;SDS011;17386;43.846;25.950;2023-04-26T04:14:14;9.88;;;4.88;;
20629;SDS011;17386;43.846;25.950;2023-04-26T04:16:40;8.88;;;4.45;;
20629;SDS011;17386;43.846;25.950;2023-04-26T04:19:05;9.20;;;5.03;;
20629;SDS011;17386;43.846;25.950;2023-04-26T04:21:31;7.28;;;4.53;;
20629;SDS011;17386;43.846;25.950;2023-04-26T04:23:56;8.07;;;4.53;;
20629;SDS011;17386;43.846;25.950;2023-04-26T04:26:22;9.35;;;4.30;;
20629;SDS011;17386;43.846;25.950;2023-04-26T04:28:47;6.82;;;4.43;;
20629;SDS011;17386;43.846;25.950;2023-04-26T04:31:13;9.30;;;4.80;;
20629;SDS011;17386;43.846;25.950;2023-04-26T04:33:38;13.43;;;5.28;;
20629;SDS011;17386;43.846;25.950;2023-04-26T04:36:04;7.50;;;4.80;;
20629;SDS011;17386;43.846;25.950;2023-04-26T04:38:30;10.40;;;4.57;;
20629;SDS011;17386;43.846;25.950;2023-04-26T04:40:56;9.50;;;5.18;;
20629;SDS011;17386;43.846;25.950;2023-04-26T04:43:22;7.78;;;4.35;;
20629;SDS011;17386;43.846;25.950;2023-04-26T04:45:48;6.63;;;4.15;;
20629;SDS011;17386;43.846;25.950;2023-04-26T04:48:13;7.93;;;4.45;;
20629;SDS011;17386;43.846;25.950;2023-04-26T04:50:45;9.48;;;4.65;;
20629;SDS011;17386;43.846;25.950;2023-04-26T04:53:11;11.35;;;5.22;;
20629;SDS011;17386;43.846;25.950;2023-04-26T04:55:39;8.68;;;5.13;;
20629;SDS011;17386;43.846;25.950;2023-04-26T04:58:05;9.02;;;4.53;;
20629;SDS011;17386;43.846;25.950;2023-04-26T05:00:30;10.15;;;5.80;;
20629;SDS011;17386;43.846;25.950;2023-04-26T05:02:56;9.52;;;5.07;;
20629;SDS011;17386;43.846;25.950;2023-04-26T05:05:22;10.10;;;5.65;;
20629;SDS011;17386;43.846;25.950;2023-04-26T05:07:47;11.77;;;6.00;;
20629;SDS011;17386;43.846;25.950;2023-04-26T05:10:13;10.00;;;5.22;;
20629;SDS011;17386;43.846;25.950;2023-04-26T05:12:38;9.90;;;5.40;;
20629;SDS011;17386;43.846;25.950;2023-04-26T05:15:04;10.68;;;5.10;;
20629;SDS011;17386;43.846;25.950;2023-04-26T05:17:31;7.25;;;4.43;;
20629;SDS011;17386;43.846;25.950;2023-04-26T05:19:57;10.05;;;6.00;;
20629;SDS011;17386;43.846;25.950;2023-04-26T05:22:22;8.52;;;4.55;;
20629;SDS011;17386;43.846;25.950;2023-04-26T05:24:48;16.25;;;5.75;;
20629;SDS011;17386;43.846;25.950;2023-04-26T05:27:14;14.68;;;5.80;;
20629;SDS011;17386;43.846;25.950;2023-04-26T05:29:39;8.57;;;4.85;;
20629;SDS011;17386;43.846;25.950;2023-04-26T05:32:05;14.13;;;5.00;;
20629;SDS011;17386;43.846;25.950;2023-04-26T05:34:31;7.60;;;4.80;;
20629;SDS011;17386;43.846;25.950;2023-04-26T05:36:56;7.78;;;4.75;;
20629;SDS011;17386;43.846;25.950;2023-04-26T05:39:22;7.28;;;4.28;;
20629;SDS011;17386;43.846;25.950;2023-04-26T05:41:47;7.53;;;4.28;;
20629;SDS011;17386;43.846;25.950;2023-04-26T05:44:13;9.23;;;5.00;;
20629;SDS011;17386;43.846;25.950;2023-04-26T05:46:39;7.35;;;4.45;;
20629;SDS011;17386;43.846;25.950;2023-04-26T05:49:04;9.73;;;5.00;;
20629;SDS011;17386;43.846;25.950;2023-04-26T05:51:30;8.63;;;4.80;;
20629;SDS011;17386;43.846;25.950;2023-04-26T05:53:56;7.82;;;4.68;;
20629;SDS011;17386;43.846;25.950;2023-04-26T05:56:22;8.25;;;4.10;;
20629;SDS011;17386;43.846;25.950;2023-04-26T05:58:48;9.98;;;5.25;;
20629;SDS011;17386;43.846;25.950;2023-04-26T06:01:13;8.32;;;4.93;;
20629;SDS011;17386;43.846;25.950;2023-04-26T06:03:39;11.38;;;5.15;;
20629;SDS011;17386;43.846;25.950;2023-04-26T06:06:04;11.38;;;5.82;;
20629;SDS011;17386;43.846;25.950;2023-04-26T06:08:30;11.40;;;6.30;;
20629;SDS011;17386;43.846;25.950;2023-04-26T06:10:55;12.57;;;6.85;;
20629;SDS011;17386;43.846;25.950;2023-04-26T06:13:21;12.40;;;6.65;;
20629;SDS011;17386;43.846;25.950;2023-04-26T06:15:46;12.60;;;6.57;;
20629;SDS011;17386;43.846;25.950;2023-04-26T06:18:11;11.57;;;5.95;;
20629;SDS011;17386;43.846;25.950;2023-04-26T06:20:37;9.10;;;4.72;;
20629;SDS011;17386;43.846;25.950;2023-04-26T06:23:02;8.07;;;4.90;;
20629;SDS011;17386;43.846;25.950;2023-04-26T06:25:28;8.95;;;4.63;;
20629;SDS011;17386;43.846;25.950;2023-04-26T06:27:54;8.20;;;4.57;;
20629;SDS011;17386;43.846;25.950;2023-04-26T06:30:19;7.90;;;4.57;;
20629;SDS011;17386;43.846;25.950;2023-04-26T06:32:45;8.50;;;5.20;;
20629;SDS011;17386;43.846;25.950;2023-04-26T06:35:10;7.75;;;4.30;;
20629;SDS011;17386;43.846;25.950;2023-04-26T06:37:36;8.50;;;4.32;;
20629;SDS011;17386;43.846;25.950;2023-04-26T06:40:03;8.90;;;4.28;;
20629;SDS011;17386;43.846;25.950;2023-04-26T06:42:30;7.88;;;4.25;;
20629;SDS011;17386;43.846;25.950;2023-04-26T06:44:55;7.88;;;4.40;;
20629;SDS011;17386;43.846;25.950;2023-04-26T06:47:20;7.95;;;3.90;;
20629;SDS011;17386;43.846;25.950;2023-04-26T06:49:46;5.85;;;4.10;;
20629;SDS011;17386;43.846;25.950;2023-04-26T06:52:11;10.07;;;3.42;;
20629;SDS011;17386;43.846;25.950;2023-04-26T06:54:36;6.63;;;3.78;;
20629;SDS011;17386;43.846;25.950;2023-04-26T06:57:02;8.38;;;3.92;;
20629;SDS011;17386;43.846;25.950;2023-04-26T06:59:27;7.85;;;3.95;;
20629;SDS011;17386;43.846;25.950;2023-04-26T07:01:53;7.05;;;3.80;;
20629;SDS011;17386;43.846;25.950;2023-04-26T07:04:18;8.25;;;3.60;;
20629;SDS011;17386;43.846;25.950;2023-04-26T07:06:44;7.53;;;3.75;;
20629;SDS011;17386;43.846;25.950;2023-04-26T07:09:10;5.95;;;3.83;;
20629;SDS011;17386;43.846;25.950;2023-04-26T07:11:36;7.00;;;3.85;;
20629;SDS011;17386;43.846;25.950;2023-04-26T07:14:02;6.57;;;3.58;;
20629;SDS011;17386;43.846;25.950;2023-04-26T07:16:30;9.38;;;4.03;;
20629;SDS011;17386;43.846;25.950;2023-04-26T07:18:56;4.32;;;2.90;;
20629;SDS011;17386;43.846;25.950;2023-04-26T07:21:24;10.38;;;3.38;;
20629;SDS011;17386;43.846;25.950;2023-04-26T07:23:57;4.32;;;2.83;;
20629;SDS011;17386;43.846;25.950;2023-04-26T07:26:23;2.85;;;1.88;;
20629;SDS011;17386;43.846;25.950;2023-04-26T07:28:52;4.43;;;2.03;;
20629;SDS011;17386;43.846;25.950;2023-04-26T07:31:20;4.22;;;2.42;;
20629;SDS011;17386;43.846;25.950;2023-04-26T07:33:46;3.78;;;1.90;;
20629;SDS011;17386;43.846;25.950;2023-04-26T07:36:11;4.53;;;2.42;;
20629;SDS011;17386;43.846;25.950;2023-04-26T07:38:36;4.55;;;1.90;;
20629;SDS011;17386;43.846;25.950;2023-04-26T07:41:02;2.70;;;1.60;;
20629;SDS011;17386;43.846;25.950;2023-04-26T07:43:28;3.80;;;2.20;;
20629;SDS011;17386;43.846;25.950;2023-04-26T07:45:54;5.10;;;2.05;;
20629;SDS011;17386;43.846;25.950;2023-04-26T07:48:23;3.53;;;2.05;;
20629;SDS011;17386;43.846;25.950;2023-04-26T07:50:49;3.45;;;2.20;;
20629;SDS011;17386;43.846;25.950;2023-04-26T07:53:15;3.13;;;2.10;;
20629;SDS011;17386;43.846;25.950;2023-04-26T07:55:41;2.58;;;1.90;;
20629;SDS011;17386;43.846;25.950;2023-04-26T07:58:06;3.88;;;1.98;;
20629;SDS011;17386;43.846;25.950;2023-04-26T08:00:32;4.60;;;2.40;;
20629;SDS011;17386;43.846;25.950;2023-04-26T08:02:57;4.53;;;2.17;;
20629;SDS011;17386;43.846;25.950;2023-04-26T08:05:23;5.55;;;2.00;;
20629;SDS011;17386;43.846;25.950;2023-04-26T08:07:48;4.43;;;2.10;;
20629;SDS011;17386;43.846;25.950;2023-04-26T08:10:13;7.03;;;2.20;;
20629;SDS011;17386;43.846;25.950;2023-04-26T08:12:39;4.22;;;2.53;;
20629;SDS011;17386;43.846;25.950;2023-04-26T08:15:04;4.03;;;2.28;;
20629;SDS011;17386;43.846;25.950;2023-04-26T08:17:30;4.20;;;1.90;;
20629;SDS011;17386;43.846;25.950;2023-04-26T08:19:56;3.25;;;2.20;;
20629;SDS011;17386;43.846;25.950;2023-04-26T08:22:23;3.13;;;1.88;;
20629;SDS011;17386;43.846;25.950;2023-04-26T08:24:49;3.92;;;2.13;;
20629;SDS011;17386;43.846;25.950;2023-04-26T08:27:15;4.50;;;2.17;;
20629;SDS011;17386;43.846;25.950;2023-04-26T08:29:41;4.15;;;1.80;;
20629;SDS011;17386;43.846;25.950;2023-04-26T08:32:07;3.25;;;2.00;;
20629;SDS011;17386;43.846;25.950;2023-04-26T08:34:32;3.30;;;1.67;;
20629;SDS011;17386;43.846;25.950;2023-04-26T08:36:57;2.50;;;1.60;;
20629;SDS011;17386;43.846;25.950;2023-04-26T08:39:23;4.30;;;2.08;;
20629;SDS011;17386;43.846;25.950;2023-04-26T08:41:49;2.63;;;1.40;;
20629;SDS011;17386;43.846;25.950;2023-04-26T08:44:21;3.03;;;1.50;;
20629;SDS011;17386;43.846;25.950;2023-04-26T08:52:11;2.47;;;1.42;;
20629;SDS011;17386;43.846;25.950;2023-04-26T08:54:38;4.13;;;1.60;;
20629;SDS011;17386;43.846;25.950;2023-04-26T08:57:05;3.65;;;1.77;;
20629;SDS011;17386;43.846;25.950;2023-04-26T08:59:32;3.15;;;1.88;;
20629;SDS011;17386;43.846;25.950;2023-04-26T09:02:02;3.85;;;1.98;;
20629;SDS011;17386;43.846;25.950;2023-04-26T09:04:29;4.38;;;1.73;;
20629;SDS011;17386;43.846;25.950;2023-04-26T09:06:57;2.25;;;1.80;;
20629;SDS011;17386;43.846;25.950;2023-04-26T09:09:24;4.63;;;2.63;;
20629;SDS011;17386;43.846;25.950;2023-04-26T09:14:22;4.43;;;1.67;;
20629;SDS011;17386;43.846;25.950;2023-04-26T09:16:48;3.95;;;1.65;;
20629;SDS011;17386;43.846;25.950;2023-04-26T09:19:14;2.28;;;1.42;;
20629;SDS011;17386;43.846;25.950;2023-04-26T09:21:43;5.25;;;2.63;;
20629;SDS011;17386;43.846;25.950;2023-04-26T09:24:10;2.22;;;1.40;;
20629;SDS011;17386;43.846;25.950;2023-04-26T09:26:36;5.53;;;2.40;;
20629;SDS011;17386;43.846;25.950;2023-04-26T09:31:42;5.40;;;3.30;;
20629;SDS011;17386;43.846;25.950;2023-04-26T09:34:09;2.95;;;1.80;;
20629;SDS011;17386;43.846;25.950;2023-04-26T09:36:54;7.57;;;4.15;;
20629;SDS011;17386;43.846;25.950;2023-04-26T09:39:37;4.30;;;2.45;;
20629;SDS011;17386;43.846;25.950;2023-04-26T09:42:04;5.68;;;3.05;;
20629;SDS011;17386;43.846;25.950;2023-04-26T09:44:30;7.50;;;2.50;;
20629;SDS011;17386;43.846;25.950;2023-04-26T09:49:30;4.18;;;2.13;;
20629;SDS011;17386;43.846;25.950;2023-04-26T09:52:12;2.50;;;1.42;;
20629;SDS011;17386;43.846;25.950;2023-04-26T09:54:39;6.70;;;4.75;;
20629;SDS011;17386;43.846;25.950;2023-04-26T09:57:05;4.50;;;2.58;;
20629;SDS011;17386;43.846;25.950;2023-04-26T09:59:44;2.78;;;2.10;;
20629;SDS011;17386;43.846;25.950;2023-04-26T10:02:20;4.38;;;2.10;;
20629;SDS011;17386;43.846;25.950;2023-04-26T10:04:48;4.38;;;1.67;;
20629;SDS011;17386;43.846;25.950;2023-04-26T10:07:16;2.97;;;1.60;;
20629;SDS011;17386;43.846;25.950;2023-04-26T10:09:43;4.10;;;2.38;;
20629;SDS011;17386;43.846;25.950;2023-04-26T10:12:09;2.85;;;1.63;;
20629;SDS011;17386;43.846;25.950;2023-04-26T10:14:36;3.65;;;1.90;;
20629;SDS011;17386;43.846;25.950;2023-04-26T10:17:02;1.58;;;1.25;;
20629;SDS011;17386;43.846;25.950;2023-04-26T10:19:29;6.18;;;2.80;;
20629;SDS011;17386;43.846;25.950;2023-04-26T10:21:57;3.22;;;2.08;;
20629;SDS011;17386;43.846;25.950;2023-04-26T10:24:28;9.02;;;3.70;;
20629;SDS011;17386;43.846;25.950;2023-04-26T10:26:53;5.05;;;2.50;;
20629;SDS011;17386;43.846;25.950;2023-04-26T10:29:22;1.20;;;1.10;;
20629;SDS011;17386;43.846;25.950;2023-04-26T10:34:30;4.22;;;1.38;;
20629;SDS011;17386;43.846;25.950;2023-04-26T10:37:07;7.90;;;4.93;;
20629;SDS011;17386;43.846;25.950;2023-04-26T10:39:37;5.78;;;1.70;;
20629;SDS011;17386;43.846;25.950;2023-04-26T10:44:56;3.67;;;2.00;;
20629;SDS011;17386;43.846;25.950;2023-04-26T10:47:45;4.95;;;2.97;;
20629;SDS011;17386;43.846;25.950;2023-04-26T10:50:11;1.67;;;1.42;;
20629;SDS011;17386;43.846;25.950;2023-04-26T10:53:04;3.10;;;1.83;;
20629;SDS011;17386;43.846;25.950;2023-04-26T10:58:24;3.15;;;1.33;;
20629;SDS011;17386;43.846;25.950;2023-04-26T11:01:06;3.83;;;1.67;;
20629;SDS011;17386;43.846;25.950;2023-04-26T11:03:42;6.70;;;2.67;;
20629;SDS011;17386;43.846;25.950;2023-04-26T11:06:09;4.30;;;1.80;;
20629;SDS011;17386;43.846;25.950;2023-04-26T11:08:38;10.43;;;5.00;;
20629;SDS011;17386;43.846;25.950;2023-04-26T11:13:34;3.58;;;1.55;;
20629;SDS011;17386;43.846;25.950;2023-04-26T11:16:22;2.50;;;1.42;;
20629;SDS011;17386;43.846;25.950;2023-04-26T11:18:50;1.80;;;1.30;;
20629;SDS011;17386;43.846;25.950;2023-04-26T11:21:18;4.95;;;1.70;;
20629;SDS011;17386;43.846;25.950;2023-04-26T11:23:52;3.38;;;1.77;;
20629;SDS011;17386;43.846;25.950;2023-04-26T11:26:18;5.65;;;3.42;;
20629;SDS011;17386;43.846;25.950;2023-04-26T11:28:44;7.53;;;3.58;;
20629;SDS011;17386;43.846;25.950;2023-04-26T11:31:10;2.03;;;1.38;;
20629;SDS011;17386;43.846;25.950;2023-04-26T11:33:35;3.35;;;1.90;;
20629;SDS011;17386;43.846;25.950;2023-04-26T11:36:01;3.67;;;2.00;;
20629;SDS011;17386;43.846;25.950;2023-04-26T11:38:27;6.40;;;3.10;;
20629;SDS011;17386;43.846;25.950;2023-04-26T11:41:00;2.30;;;1.50;;
20629;SDS011;17386;43.846;25.950;2023-04-26T11:43:33;13.68;;;1.70;;
20629;SDS011;17386;43.846;25.950;2023-04-26T11:46:00;4.20;;;2.30;;
20629;SDS011;17386;43.846;25.950;2023-04-26T11:48:26;5.95;;;2.28;;
20629;SDS011;17386;43.846;25.950;2023-04-26T11:50:53;3.30;;;1.50;;
20629;SDS011;17386;43.846;25.950;2023-04-26T11:53:20;4.38;;;2.53;;
20629;SDS011;17386;43.846;25.950;2023-04-26T11:55:45;7.15;;;1.90;;
20629;SDS011;17386;43.846;25.950;2023-04-26T11:58:12;1.65;;;1.05;;
20629;SDS011;17386;43.846;25.950;2023-04-26T12:00:57;3.05;;;1.00;;
20629;SDS011;17386;43.846;25.950;2023-04-26T12:03:28;7.85;;;2.90;;
20629;SDS011;17386;43.846;25.950;2023-04-26T12:06:01;4.82;;;1.88;;
20629;SDS011;17386;43.846;25.950;2023-04-26T12:08:28;4.00;;;1.33;;
20629;SDS011;17386;43.846;25.950;2023-04-26T12:10:57;6.38;;;3.17;;
20629;SDS011;17386;43.846;25.950;2023-04-26T12:13:29;2.47;;;1.13;;
20629;SDS011;17386;43.846;25.950;2023-04-26T12:15:55;1.13;;;1.02;;
20629;SDS011;17386;43.846;25.950;2023-04-26T12:18:21;4.03;;;1.55;;
20629;SDS011;17386;43.846;25.950;2023-04-26T12:20:56;5.50;;;3.25;;
20629;SDS011;17386;43.846;25.950;2023-04-26T12:23:22;3.60;;;2.20;;
20629;SDS011;17386;43.846;25.950;2023-04-26T12:25:54;2.63;;;1.70;;
20629;SDS011;17386;43.846;25.950;2023-04-26T12:28:21;3.00;;;1.38;;
20629;SDS011;17386;43.846;25.950;2023-04-26T12:30:48;2.85;;;1.20;;
20629;SDS011;17386;43.846;25.950;2023-04-26T12:33:14;1.48;;;0.80;;
20629;SDS011;17386;43.846;25.950;2023-04-26T12:35:40;2.40;;;0.98;;
20629;SDS011;17386;43.846;25.950;2023-04-26T12:38:06;4.97;;;1.13;;
20629;SDS011;17386;43.846;25.950;2023-04-26T12:40:32;7.00;;;2.95;;
20629;SDS011;17386;43.846;25.950;2023-04-26T12:42:57;7.03;;;1.73;;
20629;SDS011;17386;43.846;25.950;2023-04-26T12:45:23;2.40;;;1.55;;
20629;SDS011;17386;43.846;25.950;2023-04-26T12:47:49;4.97;;;2.20;;
20629;SDS011;17386;43.846;25.950;2023-04-26T12:50:15;6.63;;;2.30;;
20629;SDS011;17386;43.846;25.950;2023-04-26T12:52:42;3.03;;;1.00;;
20629;SDS011;17386;43.846;25.950;2023-04-26T12:55:09;3.97;;;2.08;;
20629;SDS011;17386;43.846;25.950;2023-04-26T12:57:35;1.05;;;0.85;;
20629;SDS011;17386;43.846;25.950;2023-04-26T13:00:03;1.88;;;0.82;;
20629;SDS011;17386;43.846;25.950;2023-04-26T13:02:29;1.67;;;0.65;;
20629;SDS011;17386;43.846;25.950;2023-04-26T13:04:55;1.88;;;0.88;;
20629;SDS011;17386;43.846;25.950;2023-04-26T13:07:20;2.72;;;0.90;;
20629;SDS011;17386;43.846;25.950;2023-04-26T13:09:47;0.82;;;0.80;;
20629;SDS011;17386;43.846;25.950;2023-04-26T13:12:13;1.83;;;1.15;;
20629;SDS011;17386;43.846;25.950;2023-04-26T13:14:39;4.15;;;1.13;;
20629;SDS011;17386;43.846;25.950;2023-04-26T13:17:04;3.55;;;1.30;;
20629;SDS011;17386;43.846;25.950;2023-04-26T13:19:32;2.85;;;1.33;;
20629;SDS011;17386;43.846;25.950;2023-04-26T13:21:58;5.05;;;1.58;;
20629;SDS011;17386;43.846;25.950;2023-04-26T13:24:23;1.58;;;0.80;;
20629;SDS011;17386;43.846;25.950;2023-04-26T13:26:49;1.42;;;1.25;;
20629;SDS011;17386;43.846;25.950;2023-04-26T13:29:14;2.15;;;1.10;;
20629;SDS011;17386;43.846;25.950;2023-04-26T13:31:40;0.80;;;0.70;;
20629;SDS011;17386;43.846;25.950;2023-04-26T13:34:05;5.40;;;2.15;;
20629;SDS011;17386;43.846;25.950;2023-04-26T13:36:31;3.00;;;0.90;;
20629;SDS011;17386;43.846;25.950;2023-04-26T13:38:56;1.80;;;0.98;;
20629;SDS011;17386;43.846;25.950;2023-04-26T13:41:22;3.00;;;0.70;;
20629;SDS011;17386;43.846;25.950;2023-04-26T13:43:48;3.63;;;1.08;;
20629;SDS011;17386;43.846;25.950;2023-04-26T13:46:14;2.78;;;1.30;;
20629;SDS011;17386;43.846;25.950;2023-04-26T13:48:39;2.78;;;1.30;;
20629;SDS011;17386;43.846;25.950;2023-04-26T13:51:05;3.63;;;1.00;;
20629;SDS011;17386;43.846;25.950;2023-04-26T13:53:31;7.85;;;3.45;;
20629;SDS011;17386;43.846;25.950;2023-04-26T13:55:56;2.20;;;1.35;;
20629;SDS011;17386;43.846;25.950;2023-04-26T13:58:22;5.88;;;1.83;;
20629;SDS011;17386;43.846;25.950;2023-04-26T14:00:47;3.90;;;2.42;;
20629;SDS011;17386;43.846;25.950;2023-04-26T14:03:13;2.80;;;1.40;;
20629;SDS011;17386;43.846;25.950;2023-04-26T14:05:39;6.43;;;2.30;;
20629;SDS011;17386;43.846;25.950;2023-04-26T14:08:05;5.30;;;2.30;;
20629;SDS011;17386;43.846;25.950;2023-04-26T14:10:31;1.75;;;1.02;;
20629;SDS011;17386;43.846;25.950;2023-04-26T14:12:56;3.80;;;1.20;;
20629;SDS011;17386;43.846;25.950;2023-04-26T14:15:22;3.55;;;1.88;;
20629;SDS011;17386;43.846;25.950;2023-04-26T14:17:47;1.95;;;1.00;;
20629;SDS011;17386;43.846;25.950;2023-04-26T14:20:13;7.07;;;2.50;;
20629;SDS011;17386;43.846;25.950;2023-04-26T14:22:38;2.78;;;1.40;;
20629;SDS011;17386;43.846;25.950;2023-04-26T14:25:04;2.90;;;1.50;;
20629;SDS011;17386;43.846;25.950;2023-04-26T14:27:29;5.70;;;2.00;;
20629;SDS011;17386;43.846;25.950;2023-04-26T14:29:55;2.45;;;1.00;;
20629;SDS011;17386;43.846;25.950;2023-04-26T14:32:20;4.43;;;1.58;;
20629;SDS011;17386;43.846;25.950;2023-04-26T14:34:46;1.45;;;1.10;;
20629;SDS011;17386;43.846;25.950;2023-04-26T14:37:11;2.97;;;1.35;;
20629;SDS011;17386;43.846;25.950;2023-04-26T14:39:36;2.03;;;1.15;;
20629;SDS011;17386;43.846;25.950;2023-04-26T14:42:02;2.03;;;1.00;;
20629;SDS011;17386;43.846;25.950;2023-04-26T14:44:28;2.15;;;1.25;;
20629;SDS011;17386;43.846;25.950;2023-04-26T14:46:53;2.42;;;1.10;;
20629;SDS011;17386;43.846;25.950;2023-04-26T14:49:19;1.60;;;1.20;;
20629;SDS011;17386;43.846;25.950;2023-04-26T14:51:44;7.05;;;1.50;;
20629;SDS011;17386;43.846;25.950;2023-04-26T14:54:10;4.53;;;1.38;;